Time;durP1;ratioP1;P1;durP2;ratioP2;P2;SDS_P1;SDS_P2;PMS_P1;PMS_P2;Temp;Humidity;BMP_temperature;BMP_pressure;BME280_temperature;BME280_humidity;BME280_pressure;Samples;Min_cycle;Max_cycle;Signal;HPM_P1;HPM_P2
2024/03/11 00:00:05;;;;;;;14.73;8.40;;;;;;;21.10;48.84;99371.64;2344478;74;50997;-80
2024/03/11 00:03:08;;;;;;;13.75;8.35;;;;;;;21.10;48.94;99368.41;2382162;74;22540;-79
2024/03/11 00:06:10;;;;;;;14.05;8.23;;;;;;;21.10;48.87;99379.17;2382637;74;24709;-79
2024/03/11 00:09:28;;;;;;;14.47;8.53;;;;;;;21.10;48.83;99372.45;2344887;74;50113;-79
2024/03/11 00:12:29;;;;;;;13.20;9.23;;;;;;;21.10;48.81;99372.98;2346451;74;22903;-79
2024/03/11 00:15:29;;;;;;;12.53;8.53;;;;;;;21.10;48.78;99367.60;2382108;74;22404;-80
2024/03/11 00:18:31;;;;;;;12.23;8.15;;;;;;;21.08;48.74;99375.89;2383125;74;50640;-80
2024/03/11 00:21:33;;;;;;;13.78;8.90;;;;;;;21.10;48.75;99377.83;2382823;74;50376;-80
2024/03/11 00:24:35;;;;;;;12.93;8.15;;;;;;;21.08;48.73;99374.55;2344481;74;50053;-80
2024/03/11 00:27:37;;;;;;;12.37;8.28;;;;;;;21.08;48.72;99383.14;2383031;74;51514;-80
2024/03/11 00:30:40;;;;;;;14.95;8.75;;;;;;;21.08;48.68;99387.99;2382646;74;51732;-81
2024/03/11 00:33:42;;;;;;;10.78;7.87;;;;;;;21.07;48.63;99397.13;2292719;74;50191;-80
2024/03/11 00:36:45;;;;;;;13.10;8.75;;;;;;;21.07;48.61;99394.44;2382357;74;50769;-81
2024/03/11 00:39:47;;;;;;;13.05;8.20;;;;;;;21.07;48.61;99389.59;2382552;74;50730;-81
2024/03/11 00:42:52;;;;;;;14.47;8.73;;;;;;;21.07;48.58;99390.40;2344801;74;50597;-80
2024/03/11 00:45:54;;;;;;;13.10;8.68;;;;;;;21.06;48.58;99388.74;2383011;74;22493;-80
2024/03/11 00:48:59;;;;;;;14.87;8.30;;;;;;;21.06;48.61;99386.05;2344129;74;49481;-81
2024/03/11 00:52:01;;;;;;;13.00;8.18;;;;;;;21.06;48.60;99387.92;2382691;74;50242;-80
2024/03/11 00:55:06;;;;;;;14.53;8.33;;;;;;;21.05;48.60;99387.11;2382493;74;51518;-80
2024/03/11 00:58:08;;;;;;;11.60;8.03;;;;;;;21.05;48.60;99387.64;2319490;74;23189;-80
2024/03/11 01:01:13;;;;;;;15.88;8.40;;;;;;;21.05;48.58;99376.89;2382616;74;51453;-81
2024/03/11 01:04:15;;;;;;;13.75;8.38;;;;;;;21.05;48.51;99379.58;2382563;74;51472;-80
2024/03/11 01:07:17;;;;;;;11.20;7.92;;;;;;;21.06;48.48;99373.14;2318374;74;51492;-81
2024/03/11 01:10:20;;;;;;;13.13;8.43;;;;;;;21.06;48.42;99370.45;2382795;74;51195;-81
2024/03/11 01:13:22;;;;;;;13.88;7.83;;;;;;;21.05;48.41;99370.16;2344258;74;51440;-80
2024/03/11 01:16:25;;;;;;;12.13;7.80;;;;;;;21.04;48.35;99357.75;2382617;74;51771;-80
2024/03/11 01:19:27;;;;;;;14.30;8.20;;;;;;;21.05;48.34;99361.56;2382619;74;50735;-80
2024/03/11 01:22:29;;;;;;;10.95;7.92;;;;;;;21.05;48.27;99348.12;2344232;74;50061;-80
2024/03/11 01:25:33;;;;;;;13.20;8.03;;;;;;;21.06;48.26;99346.24;2382360;74;50780;-80
2024/03/11 01:28:36;;;;;;;11.90;7.67;;;;;;;21.04;48.21;99335.73;2382401;74;50513;-80
2024/03/11 01:31:38;;;;;;;10.23;7.05;;;;;;;21.04;48.17;99339.77;2382450;74;50044;-79
2024/03/11 01:34:44;;;;;;;10.98;7.72;;;;;;;21.04;48.14;99341.11;2381838;74;50234;-80
2024/03/11 01:37:46;;;;;;;15.18;7.90;;;;;;;21.05;48.16;99343.27;2370567;74;49400;-80
2024/03/11 01:40:49;;;;;;;11.97;7.67;;;;;;;21.05;48.13;99337.36;2381708;74;50717;-80
2024/03/11 01:43:54;;;;;;;11.50;7.25;;;;;;;21.04;48.16;99342.45;2381914;74;50315;-80
2024/03/11 01:46:56;;;;;;;13.83;8.08;;;;;;;21.05;48.14;99352.16;2343602;74;50921;-80
2024/03/11 01:50:01;;;;;;;11.18;7.55;;;;;;;21.05;48.14;99348.65;2382129;74;51453;-80
2024/03/11 01:53:04;;;;;;;;;;;;;;;21.04;48.07;99355.91;2385466;74;50722;-80
2024/03/11 01:56:06;;;;;;;11.88;7.55;;;;;;;21.05;48.07;99356.19;2332562;74;50129;-79
2024/03/11 01:59:09;;;;;;;11.45;7.35;;;;;;;21.05;48.07;99352.69;2382396;74;50247;-80
2024/03/11 02:02:12;;;;;;;14.33;7.80;;;;;;;21.05;48.01;99352.16;2382446;74;50817;-80
2024/03/11 02:05:14;;;;;;;11.10;7.10;;;;;;;21.06;48.01;99357.00;2382223;74;51924;-80
2024/03/11 02:08:16;;;;;;;12.15;7.45;;;;;;;21.05;47.95;99348.12;2382426;74;50670;-79
2024/03/11 02:11:18;;;;;;;11.08;8.00;;;;;;;21.05;47.97;99348.12;2344442;74;51016;-79
2024/03/11 02:14:21;;;;;;;11.08;7.37;;;;;;;21.05;47.92;99346.77;2382713;74;50752;-79
2024/03/11 02:17:23;;;;;;;15.60;7.97;;;;;;;21.05;47.89;99349.46;2382746;74;51600;-79
2024/03/11 02:20:26;;;;;;;11.05;7.87;;;;;;;21.04;47.89;99347.83;2344306;74;52321;-80
2024/03/11 02:23:29;;;;;;;11.68;7.55;;;;;;;21.05;47.87;99347.30;2318807;74;51562;-80
2024/03/11 02:26:31;;;;;;;11.97;7.17;;;;;;;21.05;47.84;99349.99;2382217;74;50234;-80
2024/03/11 02:29:33;;;;;;;11.93;7.30;;;;;;;21.03;47.84;99344.83;2344238;74;51594;-79
2024/03/11 02:32:36;;;;;;;14.35;7.15;;;;;;;21.05;47.81;99348.12;2382635;74;50415;-80
2024/03/11 02:35:38;;;;;;;10.60;7.45;;;;;;;21.04;47.78;99349.18;2343977;74;50986;-80
2024/03/11 02:38:40;;;;;;;10.82;7.40;;;;;;;21.04;47.80;99342.95;2382275;74;51455;-80
2024/03/11 02:41:43;;;;;;;11.25;7.05;;;;;;;21.04;47.80;99344.30;2382034;74;51276;-78
2024/03/11 02:44:45;;;;;;;10.00;6.75;;;;;;;21.04;47.78;99355.91;2292435;74;51081;-79
2024/03/11 02:47:49;;;;;;;8.78;6.90;;;;;;;21.04;47.79;99349.18;2381627;74;50534;-80
2024/03/11 02:50:51;;;;;;;9.18;6.95;;;;;;;21.04;47.80;99344.30;2381962;74;51555;-80
2024/03/11 02:53:56;;;;;;;10.35;7.05;;;;;;;21.03;47.76;99347.52;2317381;74;51810;-79
2024/03/11 02:56:57;;;;;;;9.63;6.97;;;;;;;21.04;47.77;99349.18;2344282;74;22346;-79
2024/03/11 03:00:00;;;;;;;10.43;6.72;;;;;;;21.04;47.73;99346.99;2317644;74;50089;-80
2024/03/11 03:03:02;;;;;;;11.20;6.87;;;;;;;21.04;47.72;99341.11;2344364;74;50437;-80
2024/03/11 03:06:04;;;;;;;9.73;7.10;;;;;;;21.03;47.72;99335.42;2382544;74;50453;-79
2024/03/11 03:09:06;;;;;;;9.50;6.80;;;;;;;21.03;47.70;99339.45;2316790;74;50982;-79
2024/03/11 03:12:12;;;;;;;10.35;6.95;;;;;;;21.02;47.71;99332.45;2382596;74;51607;-80
2024/03/11 03:15:16;;;;;;;10.95;6.53;;;;;;;21.03;47.74;99342.67;2320240;74;51670;-80
2024/03/11 03:18:19;;;;;;;10.15;6.87;;;;;;;21.03;47.78;99338.11;2345025;74;49701;-80
2024/03/11 03:21:25;;;;;;;11.00;7.53;;;;;;;21.03;47.75;99343.48;2382452;74;51451;-80
2024/03/11 03:24:27;;;;;;;8.78;6.70;;;;;;;21.03;47.69;99338.64;2344279;74;52987;-81
2024/03/11 03:27:29;;;;;;;12.70;7.12;;;;;;;21.03;47.64;99334.61;2344771;74;51192;-80
2024/03/11 03:30:32;;;;;;;10.63;6.97;;;;;;;21.04;47.63;99332.20;2382739;74;50691;-80
2024/03/11 03:33:35;;;;;;;11.65;7.12;;;;;;;21.02;47.62;99336.48;2318247;74;51032;-80
2024/03/11 03:36:38;;;;;;;8.75;6.10;;;;;;;21.02;47.68;99341.86;2382483;74;50668;-80
2024/03/11 03:39:41;;;;;;;9.85;6.65;;;;;;;21.03;47.67;99341.33;2382701;74;51632;-80
2024/03/11 03:42:44;;;;;;;8.85;6.50;;;;;;;21.03;47.65;99344.02;2382743;74;51811;-80
2024/03/11 03:45:48;;;;;;;10.50;6.95;;;;;;;21.03;47.63;99354.24;2382658;74;51555;-80
2024/03/11 03:48:51;;;;;;;9.08;6.78;;;;;;;21.02;47.65;99347.24;2317144;74;49838;-80
2024/03/11 03:51:53;;;;;;;10.15;6.85;;;;;;;21.03;47.63;99346.70;2382803;74;50778;-79
2024/03/11 03:54:55;;;;;;;10.53;6.35;;;;;;;21.02;47.57;99347.24;2382735;74;50331;-81
2024/03/11 03:57:58;;;;;;;9.35;6.65;;;;;;;21.03;47.52;99345.36;2316741;74;51297;-80
2024/03/11 04:01:02;;;;;;;9.33;6.10;;;;;;;21.02;47.52;99346.42;2382589;74;51326;-80
2024/03/11 04:04:04;;;;;;;10.53;6.42;;;;;;;21.02;47.52;99359.88;2344948;74;22437;-81
2024/03/11 04:07:06;;;;;;;9.00;6.47;;;;;;;21.02;47.50;99360.69;2343849;74;50161;-81
2024/03/11 04:10:12;;;;;;;9.15;6.47;;;;;;;21.02;47.49;99352.62;2343552;74;50010;-81
2024/03/11 04:13:13;;;;;;;8.93;6.65;;;;;;;21.01;47.51;99360.91;2344752;74;23304;-79
2024/03/11 04:16:16;;;;;;;9.58;6.53;;;;;;;21.00;47.51;99360.09;2381991;74;51570;-81
2024/03/11 04:19:18;;;;;;;10.78;6.58;;;;;;;21.02;47.47;99366.59;2382739;74;51559;-81
2024/03/11 04:22:20;;;;;;;8.95;6.70;;;;;;;21.00;47.51;99364.12;2382728;74;51558;-81
2024/03/11 04:25:28;;;;;;;9.43;6.17;;;;;;;21.01;47.52;99374.34;2382731;74;51444;-81
2024/03/11 04:28:30;;;;;;;9.15;6.65;;;;;;;21.00;47.53;99373.53;2382947;74;50976;-81
2024/03/11 04:31:33;;;;;;;7.90;6.03;;;;;;;21.01;47.52;99377.85;2382693;74;51580;-80
2024/03/11 04:34:37;;;;;;;9.78;6.35;;;;;;;21.01;47.50;99372.47;2344973;74;50437;-80
2024/03/11 04:37:40;;;;;;;8.63;6.42;;;;;;;21.01;47.48;99375.16;2318714;74;49664;-80
2024/03/11 04:40:47;;;;;;;7.95;6.22;;;;;;;21.01;47.50;99381.89;2382736;74;50635;-80
2024/03/11 04:43:49;;;;;;;11.05;6.10;;;;;;;21.01;47.55;99384.58;2345923;74;50735;-78
2024/03/11 04:46:51;;;;;;;9.65;6.42;;;;;;;21.00;47.56;99380.26;2318286;74;50789;-79
2024/03/11 04:49:53;;;;;;;8.58;6.25;;;;;;;21.01;47.59;99381.08;2316875;74;49558;-78
2024/03/11 04:52:58;;;;;;;7.92;6.12;;;;;;;21.00;47.56;99382.95;2382718;74;50756;-79
2024/03/11 04:56:01;;;;;;;7.70;6.05;;;;;;;21.01;47.49;99388.61;2380728;74;51522;-78
2024/03/11 04:59:04;;;;;;;11.65;6.60;;;;;;;21.01;47.48;99390.48;2382892;74;51159;-80
2024/03/11 05:02:08;;;;;;;9.48;6.65;;;;;;;21.00;47.52;99395.58;2344465;74;49403;-79
2024/03/11 05:05:10;;;;;;;10.85;6.45;;;;;;;20.99;47.47;99392.58;2382538;74;51582;-80
2024/03/11 05:08:12;;;;;;;8.35;6.20;;;;;;;21.00;47.47;99396.92;2344812;74;49664;-79
2024/03/11 05:11:14;;;;;;;11.03;6.53;;;;;;;21.00;47.39;99394.23;2318442;74;51145;-80
2024/03/11 05:14:16;;;;;;;9.18;6.17;;;;;;;20.98;47.47;99393.11;2382768;74;50741;-81
2024/03/11 05:17:19;;;;;;;8.60;5.78;;;;;;;20.99;47.47;99391.23;2344569;74;50242;-80
2024/03/11 05:20:21;;;;;;;8.93;6.00;;;;;;;21.00;47.46;99398.27;2357675;74;50423;-80
2024/03/11 05:23:23;;;;;;;8.13;6.00;;;;;;;20.99;47.46;99398.80;2341686;76;50757;-81
2024/03/11 05:26:25;;;;;;;6.87;5.35;;;;;;;20.99;47.47;99398.80;2317056;76;50951;-81
2024/03/11 05:29:28;;;;;;;10.98;6.10;;;;;;;20.99;47.44;99393.92;2316048;76;51425;-81
2024/03/11 05:32:31;;;;;;;7.12;5.97;;;;;;;20.99;47.43;99398.80;2341787;75;51728;-81
2024/03/11 05:35:34;;;;;;;9.00;6.20;;;;;;;20.99;47.42;99409.56;2290007;76;50908;-81
2024/03/11 05:38:36;;;;;;;9.40;5.80;;;;;;;21.00;47.40;99416.56;2341733;75;50098;-79
2024/03/11 05:41:41;;;;;;;7.03;5.65;;;;;;;20.99;47.39;99421.66;2341619;76;50438;-80
2024/03/11 05:44:42;;;;;;;18.87;6.47;;;;;;;21.00;47.44;99435.39;2341673;76;22381;-80
2024/03/11 05:47:45;;;;;;;11.22;5.95;;;;;;;20.99;47.62;99445.02;2341161;76;50753;-81
2024/03/11 05:50:52;;;;;;;14.40;6.37;;;;;;;20.99;47.56;99427.54;2304993;76;50206;-81
2024/03/11 05:53:56;;;;;;;8.25;5.67;;;;;;;21.00;47.50;99435.92;2304374;76;51200;-79
2024/03/11 05:56:58;;;;;;;13.08;6.37;;;;;;;20.99;47.52;99436.45;2310326;76;22429;-80
2024/03/11 06:00:00;;;;;;;15.98;5.97;;;;;;;21.00;47.98;99433.23;2316290;76;50244;-80
2024/03/11 06:03:02;;;;;;;13.00;5.95;;;;;;;21.00;48.07;99444.80;2358054;74;50729;-78
2024/03/11 06:06:04;;;;;;;23.38;6.03;;;;;;;21.01;48.14;99438.36;2316766;74;52268;-79
2024/03/11 06:09:09;;;;;;;14.45;6.87;;;;;;;21.02;48.50;99435.98;2291598;74;49638;-79
2024/03/11 06:12:11;;;;;;;21.20;6.60;;;;;;;21.02;48.49;99441.37;2380828;74;22344;-81
2024/03/11 06:15:13;;;;;;;22.67;6.85;;;;;;;21.03;48.89;99438.95;2374289;74;50776;-81
2024/03/11 06:18:15;;;;;;;24.87;7.17;;;;;;;21.03;49.07;99440.30;2287980;76;49673;-81
2024/03/11 06:21:17;;;;;;;27.55;8.00;;;;;;;21.05;49.74;99446.28;2348816;74;50919;-82
2024/03/11 06:24:19;;;;;;;17.73;7.05;;;;;;;21.05;49.69;99448.97;2340338;74;50801;-81
2024/03/11 06:27:22;;;;;;;13.03;6.45;;;;;;;21.07;49.53;99456.30;2363321;74;50704;-81
2024/03/11 06:30:25;;;;;;;27.45;7.22;;;;;;;21.09;49.67;99458.73;2376362;74;51380;-79
2024/03/11 06:33:27;;;;;;;24.85;6.78;;;;;;;21.10;49.72;99454.48;2303317;76;50132;-82
2024/03/11 06:36:30;;;;;;;17.40;6.37;;;;;;;21.12;49.81;99462.84;2303316;76;51474;-82
2024/03/11 06:39:32;;;;;;;21.57;6.90;;;;;;;21.14;50.00;99463.44;2340158;76;51518;-80
2024/03/11 06:42:35;;;;;;;18.98;6.83;;;;;;;21.15;49.94;99463.75;2303006;76;51538;-80
2024/03/11 06:45:37;;;;;;;21.30;7.10;;;;;;;21.15;49.99;99469.13;2340035;76;50894;-79
2024/03/11 06:48:44;;;;;;;21.65;7.60;;;;;;;21.14;49.90;99468.28;2303125;76;50932;-80
2024/03/11 06:51:44;;;;;;;24.27;7.40;;;;;;;21.13;49.82;99482.80;2338944;76;22241;-80
2024/03/11 06:54:48;;;;;;;20.00;6.97;;;;;;;21.12;49.90;99475.79;2340189;76;50496;-83
2024/03/11 06:57:51;;;;;;;18.37;6.90;;;;;;;21.13;49.81;99484.14;2255040;76;52574;-83
2024/03/11 07:00:53;;;;;;;20.80;7.25;;;;;;;21.13;49.88;99480.64;2340899;76;50741;-84
2024/03/11 07:03:55;;;;;;;24.35;6.67;;;;;;;21.13;49.93;99483.33;2340820;76;51482;-85
2024/03/11 07:06:59;;;;;;;17.87;6.83;;;;;;;21.13;50.17;99487.36;2303473;76;49985;-82
2024/03/11 07:10:01;;;;;;;19.17;6.60;;;;;;;21.13;50.24;99492.21;2340231;76;51435;-84
2024/03/11 07:13:04;;;;;;;20.48;6.60;;;;;;;21.12;50.48;99491.08;2350532;74;50412;-83
2024/03/11 07:16:06;;;;;;;26.17;7.67;;;;;;;21.14;50.21;99507.29;2317072;74;50644;-83
2024/03/11 07:19:09;;;;;;;19.25;6.80;;;;;;;21.15;50.21;99493.34;2317230;74;50704;-84
2024/03/11 07:22:11;;;;;;;16.20;6.60;;;;;;;21.13;50.22;99497.59;2342962;74;49586;-82
2024/03/11 07:25:15;;;;;;;19.17;7.12;;;;;;;21.15;50.11;99500.06;2380832;74;50360;-82
2024/03/11 07:28:17;;;;;;;21.80;6.65;;;;;;;21.14;50.05;99501.91;2381145;74;22376;-82
2024/03/11 07:31:20;;;;;;;17.70;7.30;;;;;;;21.13;50.04;99500.81;2342708;74;50124;-81
2024/03/11 07:34:23;;;;;;;18.55;6.92;;;;;;;21.14;49.91;99506.48;2343057;74;50438;-80
2024/03/11 07:37:25;;;;;;;16.10;6.95;;;;;;;21.14;49.85;99503.78;2343482;74;50663;-83
2024/03/11 07:40:28;;;;;;;16.57;6.95;;;;;;;21.13;49.77;99516.42;2381156;74;50061;-82
2024/03/11 07:43:31;;;;;;;22.77;7.17;;;;;;;21.13;49.75;99516.95;2342823;74;50381;-82
2024/03/11 07:46:35;;;;;;;17.73;6.90;;;;;;;21.12;49.68;99527.39;2342576;74;51003;-82
2024/03/11 07:49:37;;;;;;;19.35;7.55;;;;;;;21.13;49.68;99523.67;2380963;74;50685;-82
2024/03/11 07:52:40;;;;;;;18.60;6.83;;;;;;;21.12;49.61;99520.67;2343468;74;50399;-82
2024/03/11 07:55:42;;;;;;;14.50;6.65;;;;;;;21.12;49.57;99528.23;2343196;74;50942;-81
2024/03/11 07:58:46;;;;;;;15.95;6.58;;;;;;;21.11;49.55;99530.61;2380968;74;50789;-82
2024/03/11 08:01:48;;;;;;;15.43;6.83;;;;;;;21.12;49.48;99543.53;2380894;74;51213;-81
2024/03/11 08:04:51;;;;;;;14.68;6.67;;;;;;;21.12;49.49;99552.95;2380924;74;51561;-82
2024/03/11 08:07:53;;;;;;;19.70;7.05;;;;;;;21.12;49.44;99561.02;2380900;74;50518;-82
2024/03/11 08:10:55;;;;;;;16.05;6.72;;;;;;;21.11;49.41;99558.86;2316804;74;49613;-82
2024/03/11 08:13:57;;;;;;;14.07;6.15;;;;;;;21.11;49.37;99575.00;2380853;74;50751;-81
2024/03/11 08:17:00;;;;;;;17.17;6.33;;;;;;;21.10;49.30;99570.14;2380805;74;51566;-81
2024/03/11 08:20:04;;;;;;;14.07;6.17;;;;;;;21.09;49.27;99575.23;2342934;74;49328;-81
2024/03/11 08:23:06;;;;;;;14.07;6.20;;;;;;;21.08;49.25;99580.30;2317324;74;51492;-82
2024/03/11 08:26:09;;;;;;;15.55;6.97;;;;;;;21.08;49.24;99581.65;2380836;74;51456;-84
2024/03/11 08:29:11;;;;;;;17.25;6.62;;;;;;;21.08;49.17;99591.06;2343101;74;50718;-81
2024/03/11 08:32:13;;;;;;;13.53;5.80;;;;;;;21.08;49.14;99587.03;2381142;74;51485;-84
2024/03/11 08:35:15;;;;;;;22.00;6.72;;;;;;;21.08;49.10;99589.72;2343271;74;50997;-83
2024/03/11 08:38:17;;;;;;;15.18;6.70;;;;;;;21.08;49.05;99601.81;2343331;74;51490;-83
2024/03/11 08:41:21;;;;;;;14.40;6.85;;;;;;;21.08;49.08;99596.97;2381224;74;50427;-83
2024/03/11 08:44:23;;;;;;;15.00;6.60;;;;;;;21.08;49.03;99607.73;2315433;74;51109;-83
2024/03/11 08:47:27;;;;;;;14.28;6.35;;;;;;;21.07;49.05;99610.95;2380952;74;51474;-82
2024/03/11 08:50:29;;;;;;;13.38;6.20;;;;;;;21.08;49.01;99606.38;2343538;74;50746;-83
2024/03/11 08:53:31;;;;;;;14.15;6.30;;;;;;;21.07;49.05;99620.36;2381031;74;51175;-83
2024/03/11 08:56:34;;;;;;;13.83;6.58;;;;;;;21.07;49.05;99616.33;2381118;74;50338;-83
2024/03/11 08:59:37;;;;;;;11.95;6.22;;;;;;;21.07;49.02;99620.89;2315335;74;49451;-83
2024/03/11 09:02:44;;;;;;;12.93;6.80;;;;;;;21.07;49.02;99620.36;2342651;74;50337;-82
2024/03/11 09:05:47;;;;;;;12.80;6.65;;;;;;;21.07;49.01;99622.23;2343895;74;26129;-82
2024/03/11 09:08:49;;;;;;;12.73;6.25;;;;;;;21.06;48.97;99624.08;2315273;74;51027;-83
2024/03/11 09:12:00;;;;;;;12.23;6.45;;;;;;;21.06;48.92;99629.98;2380881;74;51374;-83
2024/03/11 09:15:04;;;;;;;15.55;6.12;;;;;;;21.07;48.90;99638.38;2380858;74;51380;-83
2024/03/11 09:18:06;;;;;;;11.78;6.40;;;;;;;21.06;48.87;99636.71;2317441;74;51608;-83
2024/03/11 09:21:09;;;;;;;14.73;6.47;;;;;;;21.06;48.81;99641.56;2316699;74;50104;-83
2024/03/11 09:24:11;;;;;;;10.15;6.22;;;;;;;21.07;48.80;99653.98;2315243;74;51947;-83
2024/03/11 09:27:14;;;;;;;12.90;6.03;;;;;;;21.06;48.76;99656.35;2380789;74;51031;-82
2024/03/11 09:30:17;;;;;;;11.68;6.50;;;;;;;21.06;48.74;99660.92;2380934;74;50253;-83
2024/03/11 09:33:21;;;;;;;14.07;6.33;;;;;;;21.05;48.71;99664.14;2315105;74;49266;-81
2024/03/11 09:36:23;;;;;;;11.38;6.05;;;;;;;21.05;48.69;99665.48;2380791;74;52166;-82
2024/03/11 09:39:25;;;;;;;11.83;6.83;;;;;;;21.05;48.63;99672.20;2342990;74;51592;-82
2024/03/11 09:42:30;;;;;;;12.15;6.60;;;;;;;21.05;48.65;99670.05;2342765;74;50680;-82
2024/03/11 09:45:34;;;;;;;13.08;5.92;;;;;;;21.05;48.60;99683.49;2380955;74;22252;-82
2024/03/11 09:48:39;;;;;;;12.88;6.20;;;;;;;21.04;48.58;99693.44;2381238;74;22257;-83
2024/03/11 09:51:40;;;;;;;11.55;6.67;;;;;;;21.04;48.58;99698.81;2380699;74;22430;-82
2024/03/11 09:54:44;;;;;;;11.57;6.03;;;;;;;21.05;48.58;99703.66;2380937;74;51575;-81
2024/03/11 09:57:46;;;;;;;10.53;6.05;;;;;;;21.04;48.57;99713.61;2342626;74;50228;-83
2024/03/11 10:00:58;;;;;;;12.98;6.20;;;;;;;21.03;48.56;99717.33;2380982;74;51578;-83
2024/03/11 10:04:00;;;;;;;9.75;6.33;;;;;;;21.04;48.55;99714.95;2379863;74;21960;-83
2024/03/11 10:07:10;;;;;;;12.73;6.58;;;;;;;21.04;48.52;99718.98;2380352;74;50945;-82
2024/03/11 10:10:12;;;;;;;10.35;6.05;;;;;;;21.04;48.48;99722.17;2379751;74;22338;-84
2024/03/11 10:13:15;;;;;;;8.68;5.90;;;;;;;21.03;48.44;99738.02;2315527;74;49635;-84
2024/03/11 10:16:21;;;;;;;10.20;6.22;;;;;;;21.03;48.43;99728.61;2380878;74;51480;-82
2024/03/11 10:19:26;;;;;;;10.55;6.50;;;;;;;21.03;48.39;99729.42;2381320;74;22334;-84
2024/03/11 10:22:31;;;;;;;8.90;5.70;;;;;;;21.04;48.43;99719.48;2380873;74;22717;-82
2024/03/11 10:25:34;;;;;;;9.95;6.58;;;;;;;21.05;48.43;99733.25;2380771;74;50753;-82
2024/03/11 10:28:38;;;;;;;9.53;6.22;;;;;;;21.05;48.44;99739.98;2381065;74;50987;-81
2024/03/11 10:31:42;;;;;;;10.35;5.62;;;;;;;21.05;48.38;99746.70;2343848;74;22277;-82
2024/03/11 10:34:54;;;;;;;11.45;6.33;;;;;;;21.06;48.36;99746.98;2317528;74;51571;-82
2024/03/11 10:38:08;;;;;;;10.70;6.30;;;;;;;21.05;48.34;99745.36;2315533;74;51020;-84
2024/03/11 10:41:23;;;;;;;8.43;5.97;;;;;;;21.06;48.30;99745.12;2337739;74;51539;-84
2024/03/11 10:44:33;;;;;;;9.05;5.85;;;;;;;21.07;48.38;99752.16;2344314;74;51583;-83
2024/03/11 10:47:38;;;;;;;8.40;5.70;;;;;;;21.08;48.35;99757.01;2343190;74;49328;-82
2024/03/11 10:50:39;;;;;;;10.05;5.90;;;;;;;21.07;48.33;99754.84;2381154;74;22271;-84
2024/03/11 10:53:42;;;;;;;10.32;6.15;;;;;;;21.07;48.35;99764.27;2381206;74;51167;-82
2024/03/11 10:56:45;;;;;;;9.75;6.08;;;;;;;21.06;48.35;99763.95;2381249;74;51537;-82
2024/03/11 10:59:48;;;;;;;8.28;5.83;;;;;;;21.06;48.32;99757.22;2381250;74;50371;-84
2024/03/11 11:03:12;;;;;;;7.22;5.72;;;;;;;21.06;48.27;99766.63;2343140;74;50952;-82
2024/03/11 11:06:09;;;;;;;9.18;6.08;;;;;;;21.06;48.25;99765.28;2375942;74;23046;-82
2024/03/11 11:09:13;;;;;;;9.70;6.30;;;;;;;21.07;48.25;99770.17;2344484;74;50384;-83
2024/03/11 11:12:19;;;;;;;8.40;5.92;;;;;;;21.06;48.20;99769.32;2315505;74;50073;-82
2024/03/11 11:15:20;;;;;;;8.25;5.78;;;;;;;21.06;48.20;99770.67;2343710;74;22336;-82
2024/03/11 11:18:24;;;;;;;10.05;6.20;;;;;;;21.07;48.24;99778.23;2381147;74;50454;-83
2024/03/11 11:21:29;;;;;;;9.58;6.25;;;;;;;21.07;48.18;99770.98;2380850;74;51619;-82
2024/03/11 11:24:32;;;;;;;10.45;6.47;;;;;;;21.06;48.14;99773.36;2381562;74;22331;-84
2024/03/11 11:27:37;;;;;;;7.90;5.65;;;;;;;21.07;48.11;99781.75;2342424;74;50208;-82
2024/03/11 11:30:38;;;;;;;9.03;6.08;;;;;;;21.07;48.12;99777.71;2381065;74;22267;-83
2024/03/11 11:33:56;;;;;;;10.40;6.50;;;;;;;21.08;48.07;99781.22;2381104;74;50693;-82
2024/03/11 11:37:01;;;;;;;8.08;5.33;;;;;;;21.08;48.08;99786.07;2343478;74;22412;-83
2024/03/11 11:40:22;;;;;;;6.85;5.60;;;;;;;21.09;48.09;99783.70;2381775;74;22233;-84
2024/03/11 11:43:54;;;;;;;7.60;5.67;;;;;;;21.09;48.10;99780.16;2363485;74;51020;-84
2024/03/11 11:46:47;;;;;;;6.75;5.92;;;;;;;21.10;48.11;99785.34;2377797;74;22291;-83
2024/03/11 11:49:50;;;;;;;9.45;5.80;;;;;;;21.10;48.06;99782.64;2381190;74;51585;-83
2024/03/11 11:53:03;;;;;;;8.03;5.80;;;;;;;21.10;48.08;99788.02;2342862;74;49576;-83
2024/03/11 11:56:05;;;;;;;9.50;5.65;;;;;;;21.13;48.05;99788.11;2343222;74;50818;-83
2024/03/11 11:59:08;;;;;;;7.28;5.35;;;;;;;21.14;48.04;99787.58;2343186;74;50480;-83
2024/03/11 12:02:19;;;;;;;8.35;5.65;;;;;;;21.13;47.96;99787.28;2342420;74;52522;-81
2024/03/11 12:05:22;;;;;;;6.80;5.60;;;;;;;21.14;47.99;99799.69;2380734;74;51557;-82
2024/03/11 12:08:24;;;;;;;7.42;5.72;;;;;;;21.14;47.98;99795.65;2380656;74;50692;-83
2024/03/11 12:11:27;;;;;;;8.23;5.20;;;;;;;21.13;47.97;99804.77;2380887;74;50988;-83
2024/03/11 12:14:30;;;;;;;6.80;5.37;;;;;;;21.14;47.94;99809.09;2380867;74;50411;-83
2024/03/11 12:17:33;;;;;;;7.83;5.50;;;;;;;21.14;47.97;99806.41;2315631;74;51010;-83
2024/03/11 12:20:35;;;;;;;7.05;5.92;;;;;;;21.13;47.94;99800.73;2317165;74;50689;-83
2024/03/11 12:23:38;;;;;;;5.87;4.95;;;;;;;21.12;47.93;99799.07;2343201;74;51507;-81
2024/03/11 12:26:45;;;;;;;7.33;5.45;;;;;;;21.12;47.90;99795.89;2341321;74;52338;-81
2024/03/11 12:29:46;;;;;;;9.10;5.45;;;;;;;21.12;47.89;99804.45;2342574;74;24312;-82
2024/03/11 12:32:58;;;;;;;8.25;5.85;;;;;;;21.10;47.90;99809.55;2380922;74;51560;-82
2024/03/11 12:36:00;;;;;;;8.43;5.67;;;;;;;21.10;47.89;99815.45;2343083;74;50246;-83
2024/03/11 12:39:07;;;;;;;6.92;5.03;;;;;;;21.10;47.90;99812.23;2381097;74;51557;-82
2024/03/11 12:42:09;;;;;;;6.45;5.33;;;;;;;21.10;47.88;99818.14;2380603;74;21974;-84
2024/03/11 12:45:10;;;;;;;6.33;4.97;;;;;;;21.09;47.88;99820.02;2343645;74;22333;-82
2024/03/11 12:48:15;;;;;;;7.33;4.95;;;;;;;21.10;47.85;99820.30;2381016;74;51138;-84
2024/03/11 12:51:18;;;;;;;8.48;5.70;;;;;;;21.10;47.82;99829.72;2316128;74;50122;-82
2024/03/11 12:54:24;;;;;;;7.12;4.85;;;;;;;21.10;47.80;99831.59;2342885;74;50328;-81
2024/03/11 12:57:29;;;;;;;8.18;5.28;;;;;;;21.09;47.79;99829.43;2380738;74;51550;-81
2024/03/11 13:00:33;;;;;;;6.53;4.87;;;;;;;21.08;47.79;99833.14;2343514;74;22376;-83
2024/03/11 13:03:35;;;;;;;7.62;5.53;;;;;;;21.09;47.78;99833.47;2381081;74;50150;-83
2024/03/11 13:06:37;;;;;;;5.87;4.75;;;;;;;21.09;47.76;99842.03;2291163;74;50213;-82
2024/03/11 13:09:40;;;;;;;5.22;4.72;;;;;;;21.09;47.71;99844.72;2381231;74;50347;-82
2024/03/11 13:12:43;;;;;;;5.70;5.05;;;;;;;21.08;47.73;99859.22;2381322;74;51962;-82
2024/03/11 13:15:45;;;;;;;7.37;5.00;;;;;;;21.09;47.75;99859.52;2315705;74;51191;-83
2024/03/11 13:18:47;;;;;;;10.38;5.25;;;;;;;21.08;47.75;99865.42;2343262;74;50363;-83
2024/03/11 13:21:51;;;;;;;6.08;4.87;;;;;;;21.07;47.78;99861.63;2381093;74;50393;-82
2024/03/11 13:25:04;;;;;;;7.10;5.10;;;;;;;21.08;47.77;99879.40;2381057;74;50260;-82
2024/03/11 13:27:58;;;;;;;;;;;;;;;21.07;47.81;99878.58;2380623;74;22377;-82
2024/03/11 13:31:01;;;;;;;4.92;4.37;;;;;;;21.07;47.78;99879.92;2381287;74;51475;-83
2024/03/11 13:34:04;;;;;;;5.12;4.62;;;;;;;21.06;47.76;99884.98;2343491;74;51458;-81
2024/03/11 13:37:08;;;;;;;7.10;4.45;;;;;;;21.07;47.75;99892.56;2380989;74;51533;-82
2024/03/11 13:40:14;;;;;;;5.80;4.62;;;;;;;21.06;47.73;99890.89;2342993;74;50630;-81
2024/03/11 13:43:16;;;;;;;6.22;4.90;;;;;;;21.06;47.70;99899.78;2343775;74;22224;-82
2024/03/11 13:46:20;;;;;;;4.97;4.47;;;;;;;21.06;47.64;99905.16;2381144;74;50671;-81
2024/03/11 13:49:24;;;;;;;5.12;4.33;;;;;;;21.07;47.60;99906.01;2342800;74;50237;-82
2024/03/11 13:52:26;;;;;;;5.37;4.28;;;;;;;21.05;47.57;99896.80;2381173;74;50672;-81
2024/03/11 13:55:28;;;;;;;5.47;4.40;;;;;;;21.05;47.56;99904.87;2343159;74;51438;-83
2024/03/11 13:58:31;;;;;;;4.83;3.92;;;;;;;21.06;47.52;99906.50;2343394;74;51909;-81
2024/03/11 14:01:33;;;;;;;4.45;4.00;;;;;;;21.05;47.47;99906.21;2343049;74;51383;-83
2024/03/11 14:04:35;;;;;;;5.15;3.77;;;;;;;21.07;47.43;99914.08;2342617;74;50103;-81
2024/03/11 14:07:37;;;;;;;5.00;4.25;;;;;;;21.08;47.47;99913.84;2380958;74;50256;-82
2024/03/11 14:10:42;;;;;;;5.75;4.20;;;;;;;21.07;47.49;99921.62;2381045;74;50263;-83
2024/03/11 14:13:43;;;;;;;5.10;3.83;;;;;;;21.07;47.43;99918.93;2381458;74;22360;-82
2024/03/11 14:16:50;;;;;;;4.03;3.62;;;;;;;21.08;47.39;99916.53;2381296;74;51571;-83